sensor_id;sensor_type;location;lat;lon;timestamp;P1;durP1;ratioP1;P2;durP2;ratioP2
15944;SDS011;30172;48.832;8.732;2022-08-19T00:02:01;21.95;;;19.55;;
15944;SDS011;30172;48.832;8.732;2022-08-19T00:04:32;26.05;;;20.17;;
15944;SDS011;30172;48.832;8.732;2022-08-19T00:07:01;24.52;;;20.52;;
15944;SDS011;30172;48.832;8.732;2022-08-19T00:09:28;22.65;;;20.17;;
15944;SDS011;30172;48.832;8.732;2022-08-19T00:11:53;22.88;;;20.40;;
15944;SDS011;30172;48.832;8.732;2022-08-19T00:14:20;24.65;;;20.35;;
15944;SDS011;30172;48.832;8.732;2022-08-19T00:16:46;25.67;;;20.55;;
15944;SDS011;30172;48.832;8.732;2022-08-19T00:19:12;24.10;;;21.60;;
15944;SDS011;30172;48.832;8.732;2022-08-19T00:21:38;24.67;;;20.40;;
15944;SDS011;30172;48.832;8.732;2022-08-19T00:24:04;26.10;;;21.25;;
15944;SDS011;30172;48.832;8.732;2022-08-19T00:26:31;23.00;;;20.52;;
15944;SDS011;30172;48.832;8.732;2022-08-19T00:28:56;24.25;;;20.70;;
15944;SDS011;30172;48.832;8.732;2022-08-19T00:31:22;22.13;;;19.77;;
15944;SDS011;30172;48.832;8.732;2022-08-19T00:33:47;25.35;;;21.35;;
15944;SDS011;30172;48.832;8.732;2022-08-19T00:36:15;25.90;;;21.13;;
15944;SDS011;30172;48.832;8.732;2022-08-19T00:38:40;23.50;;;20.77;;
15944;SDS011;30172;48.832;8.732;2022-08-19T00:41:07;23.73;;;20.65;;
15944;SDS011;30172;48.832;8.732;2022-08-19T00:43:35;22.77;;;19.65;;
15944;SDS011;30172;48.832;8.732;2022-08-19T00:46:00;23.88;;;20.75;;
15944;SDS011;30172;48.832;8.732;2022-08-19T00:48:30;26.38;;;20.02;;
15944;SDS011;30172;48.832;8.732;2022-08-19T00:50:56;25.73;;;20.30;;
15944;SDS011;30172;48.832;8.732;2022-08-19T00:53:23;24.35;;;21.33;;
15944;SDS011;30172;48.832;8.732;2022-08-19T00:55:51;26.20;;;20.50;;
15944;SDS011;30172;48.832;8.732;2022-08-19T00:58:19;23.83;;;21.17;;
15944;SDS011;30172;48.832;8.732;2022-08-19T01:00:46;26.83;;;22.13;;
15944;SDS011;30172;48.832;8.732;2022-08-19T01:03:13;24.75;;;22.02;;
15944;SDS011;30172;48.832;8.732;2022-08-19T01:05:43;25.52;;;22.13;;
15944;SDS011;30172;48.832;8.732;2022-08-19T01:08:10;26.25;;;22.35;;
15944;SDS011;30172;48.832;8.732;2022-08-19T01:10:41;27.98;;;22.45;;
15944;SDS011;30172;48.832;8.732;2022-08-19T01:13:08;27.02;;;21.90;;
15944;SDS011;30172;48.832;8.732;2022-08-19T01:15:38;25.25;;;21.27;;
15944;SDS011;30172;48.832;8.732;2022-08-19T01:18:08;25.17;;;21.05;;
15944;SDS011;30172;48.832;8.732;2022-08-19T01:20:35;24.35;;;21.23;;
15944;SDS011;30172;48.832;8.732;2022-08-19T01:23:00;24.67;;;21.23;;
15944;SDS011;30172;48.832;8.732;2022-08-19T01:25:29;25.13;;;22.23;;
15944;SDS011;30172;48.832;8.732;2022-08-19T01:27:56;25.90;;;22.60;;
15944;SDS011;30172;48.832;8.732;2022-08-19T01:30:24;25.77;;;22.20;;
15944;SDS011;30172;48.832;8.732;2022-08-19T01:32:51;25.48;;;22.75;;
15944;SDS011;30172;48.832;8.732;2022-08-19T01:35:18;27.45;;;21.67;;
15944;SDS011;30172;48.832;8.732;2022-08-19T01:37:48;25.00;;;21.35;;
15944;SDS011;30172;48.832;8.732;2022-08-19T01:40:18;24.73;;;21.55;;
15944;SDS011;30172;48.832;8.732;2022-08-19T01:42:45;23.85;;;21.17;;
15944;SDS011;30172;48.832;8.732;2022-08-19T01:45:12;23.05;;;20.65;;
15944;SDS011;30172;48.832;8.732;2022-08-19T01:47:38;25.50;;;22.17;;
15944;SDS011;30172;48.832;8.732;2022-08-19T01:50:04;24.35;;;21.85;;
15944;SDS011;30172;48.832;8.732;2022-08-19T01:52:31;25.58;;;22.67;;
15944;SDS011;30172;48.832;8.732;2022-08-19T01:54:56;26.13;;;22.35;;
15944;SDS011;30172;48.832;8.732;2022-08-19T01:57:21;24.02;;;21.50;;
15944;SDS011;30172;48.832;8.732;2022-08-19T01:59:46;25.95;;;23.25;;
15944;SDS011;30172;48.832;8.732;2022-08-19T02:02:12;24.27;;;21.67;;
15944;SDS011;30172;48.832;8.732;2022-08-19T02:04:38;26.63;;;23.83;;
15944;SDS011;30172;48.832;8.732;2022-08-19T02:07:03;25.42;;;22.42;;
15944;SDS011;30172;48.832;8.732;2022-08-19T02:09:30;25.20;;;22.58;;
15944;SDS011;30172;48.832;8.732;2022-08-19T02:11:56;24.48;;;21.75;;
15944;SDS011;30172;48.832;8.732;2022-08-19T02:14:21;25.90;;;23.20;;
15944;SDS011;30172;48.832;8.732;2022-08-19T02:16:46;25.92;;;23.00;;
15944;SDS011;30172;48.832;8.732;2022-08-19T02:19:12;24.85;;;22.20;;
15944;SDS011;30172;48.832;8.732;2022-08-19T02:21:37;28.98;;;25.30;;
15944;SDS011;30172;48.832;8.732;2022-08-19T02:24:03;28.45;;;24.08;;
15944;SDS011;30172;48.832;8.732;2022-08-19T02:26:28;25.98;;;23.23;;
15944;SDS011;30172;48.832;8.732;2022-08-19T02:28:54;29.25;;;26.08;;
15944;SDS011;30172;48.832;8.732;2022-08-19T02:31:20;30.23;;;25.17;;
15944;SDS011;30172;48.832;8.732;2022-08-19T02:33:48;26.08;;;23.48;;
15944;SDS011;30172;48.832;8.732;2022-08-19T02:36:14;27.50;;;24.60;;
15944;SDS011;30172;48.832;8.732;2022-08-19T02:38:40;28.65;;;25.55;;
15944;SDS011;30172;48.832;8.732;2022-08-19T02:41:07;28.95;;;25.77;;
15944;SDS011;30172;48.832;8.732;2022-08-19T02:43:36;28.58;;;24.52;;
15944;SDS011;30172;48.832;8.732;2022-08-19T02:48:45;28.27;;;25.23;;
15944;SDS011;30172;48.832;8.732;2022-08-19T02:51:15;29.90;;;26.80;;
15944;SDS011;30172;48.832;8.732;2022-08-19T02:53:41;31.23;;;27.02;;
15944;SDS011;30172;48.832;8.732;2022-08-19T02:56:07;30.08;;;26.75;;
15944;SDS011;30172;48.832;8.732;2022-08-19T02:58:32;30.67;;;27.48;;
15944;SDS011;30172;48.832;8.732;2022-08-19T03:00:58;30.23;;;25.90;;
15944;SDS011;30172;48.832;8.732;2022-08-19T03:03:23;29.48;;;25.67;;
15944;SDS011;30172;48.832;8.732;2022-08-19T03:05:48;29.75;;;25.98;;
15944;SDS011;30172;48.832;8.732;2022-08-19T03:08:14;29.52;;;26.33;;
15944;SDS011;30172;48.832;8.732;2022-08-19T03:10:40;31.27;;;27.75;;
15944;SDS011;30172;48.832;8.732;2022-08-19T03:13:12;31.63;;;27.30;;
15944;SDS011;30172;48.832;8.732;2022-08-19T03:15:39;29.92;;;26.70;;
15944;SDS011;30172;48.832;8.732;2022-08-19T03:18:06;33.08;;;27.88;;
15944;SDS011;30172;48.832;8.732;2022-08-19T03:20:31;31.42;;;28.13;;
15944;SDS011;30172;48.832;8.732;2022-08-19T03:22:56;32.72;;;27.95;;
15944;SDS011;30172;48.832;8.732;2022-08-19T03:25:22;30.55;;;27.25;;
15944;SDS011;30172;48.832;8.732;2022-08-19T03:27:47;32.55;;;28.33;;
15944;SDS011;30172;48.832;8.732;2022-08-19T03:30:13;29.85;;;26.10;;
15944;SDS011;30172;48.832;8.732;2022-08-19T03:32:39;31.23;;;27.85;;
15944;SDS011;30172;48.832;8.732;2022-08-19T03:35:04;30.60;;;27.40;;
15944;SDS011;30172;48.832;8.732;2022-08-19T03:37:29;33.40;;;29.17;;
15944;SDS011;30172;48.832;8.732;2022-08-19T03:39:55;30.65;;;27.33;;
15944;SDS011;30172;48.832;8.732;2022-08-19T03:42:20;34.33;;;28.27;;
15944;SDS011;30172;48.832;8.732;2022-08-19T03:44:45;30.73;;;27.25;;
15944;SDS011;30172;48.832;8.732;2022-08-19T03:47:11;32.33;;;28.80;;
15944;SDS011;30172;48.832;8.732;2022-08-19T03:49:40;33.28;;;27.38;;
15944;SDS011;30172;48.832;8.732;2022-08-19T03:52:06;34.28;;;28.20;;
15944;SDS011;30172;48.832;8.732;2022-08-19T03:54:32;32.47;;;27.27;;
15944;SDS011;30172;48.832;8.732;2022-08-19T03:56:58;32.38;;;28.55;;
15944;SDS011;30172;48.832;8.732;2022-08-19T03:59:25;31.95;;;28.05;;
15944;SDS011;30172;48.832;8.732;2022-08-19T04:01:54;32.97;;;28.48;;
15944;SDS011;30172;48.832;8.732;2022-08-19T04:04:21;31.02;;;27.75;;
15944;SDS011;30172;48.832;8.732;2022-08-19T04:06:46;30.92;;;27.63;;
15944;SDS011;30172;48.832;8.732;2022-08-19T04:09:12;32.88;;;27.65;;
15944;SDS011;30172;48.832;8.732;2022-08-19T04:11:38;33.50;;;29.90;;
15944;SDS011;30172;48.832;8.732;2022-08-19T04:14:15;33.10;;;28.98;;
15944;SDS011;30172;48.832;8.732;2022-08-19T04:16:42;32.35;;;28.63;;
15944;SDS011;30172;48.832;8.732;2022-08-19T04:19:12;31.83;;;27.90;;
15944;SDS011;30172;48.832;8.732;2022-08-19T04:21:39;33.78;;;29.35;;
15944;SDS011;30172;48.832;8.732;2022-08-19T04:24:04;33.92;;;30.30;;
15944;SDS011;30172;48.832;8.732;2022-08-19T04:26:31;35.53;;;29.55;;
15944;SDS011;30172;48.832;8.732;2022-08-19T04:28:59;35.33;;;28.80;;
15944;SDS011;30172;48.832;8.732;2022-08-19T04:31:30;34.60;;;28.75;;
15944;SDS011;30172;48.832;8.732;2022-08-19T04:33:58;32.50;;;29.00;;
15944;SDS011;30172;48.832;8.732;2022-08-19T04:36:26;36.33;;;30.73;;
15944;SDS011;30172;48.832;8.732;2022-08-19T04:38:54;31.00;;;27.77;;
15944;SDS011;30172;48.832;8.732;2022-08-19T04:41:20;32.58;;;28.65;;
15944;SDS011;30172;48.832;8.732;2022-08-19T04:44:04;32.55;;;29.08;;
15944;SDS011;30172;48.832;8.732;2022-08-19T04:46:30;32.10;;;28.73;;
15944;SDS011;30172;48.832;8.732;2022-08-19T04:48:57;32.53;;;29.02;;
15944;SDS011;30172;48.832;8.732;2022-08-19T04:51:23;33.65;;;28.45;;
15944;SDS011;30172;48.832;8.732;2022-08-19T04:53:48;33.60;;;29.90;;
15944;SDS011;30172;48.832;8.732;2022-08-19T04:56:14;36.42;;;30.13;;
15944;SDS011;30172;48.832;8.732;2022-08-19T04:58:42;33.20;;;29.60;;
15944;SDS011;30172;48.832;8.732;2022-08-19T05:01:09;33.85;;;30.13;;
15944;SDS011;30172;48.832;8.732;2022-08-19T05:03:36;33.70;;;29.33;;
15944;SDS011;30172;48.832;8.732;2022-08-19T05:06:07;34.47;;;30.75;;
15944;SDS011;30172;48.832;8.732;2022-08-19T05:08:35;36.00;;;31.92;;
15944;SDS011;30172;48.832;8.732;2022-08-19T05:11:01;36.70;;;30.90;;
15944;SDS011;30172;48.832;8.732;2022-08-19T05:13:27;37.25;;;30.40;;
15944;SDS011;30172;48.832;8.732;2022-08-19T05:15:53;34.33;;;28.85;;
15944;SDS011;30172;48.832;8.732;2022-08-19T05:18:20;35.55;;;30.80;;
15944;SDS011;30172;48.832;8.732;2022-08-19T05:21:06;36.28;;;30.75;;
15944;SDS011;30172;48.832;8.732;2022-08-19T05:23:53;38.00;;;29.95;;
15944;SDS011;30172;48.832;8.732;2022-08-19T05:26:19;35.92;;;29.45;;
15944;SDS011;30172;48.832;8.732;2022-08-19T05:28:44;35.03;;;29.83;;
15944;SDS011;30172;48.832;8.732;2022-08-19T05:31:09;34.35;;;30.50;;
15944;SDS011;30172;48.832;8.732;2022-08-19T05:33:35;35.60;;;28.65;;
15944;SDS011;30172;48.832;8.732;2022-08-19T05:36:01;34.63;;;30.90;;
15944;SDS011;30172;48.832;8.732;2022-08-19T05:38:28;36.75;;;30.13;;
15944;SDS011;30172;48.832;8.732;2022-08-19T05:40:53;34.65;;;29.05;;
15944;SDS011;30172;48.832;8.732;2022-08-19T05:43:18;36.78;;;29.50;;
15944;SDS011;30172;48.832;8.732;2022-08-19T05:45:45;37.55;;;30.55;;
15944;SDS011;30172;48.832;8.732;2022-08-19T05:48:11;35.70;;;29.27;;
15944;SDS011;30172;48.832;8.732;2022-08-19T05:50:37;33.97;;;30.25;;
15944;SDS011;30172;48.832;8.732;2022-08-19T05:53:03;33.75;;;28.95;;
15944;SDS011;30172;48.832;8.732;2022-08-19T05:55:29;32.25;;;27.98;;
15944;SDS011;30172;48.832;8.732;2022-08-19T05:57:54;34.58;;;29.00;;
15944;SDS011;30172;48.832;8.732;2022-08-19T06:00:19;31.88;;;27.58;;
15944;SDS011;30172;48.832;8.732;2022-08-19T06:02:45;31.88;;;27.73;;
15944;SDS011;30172;48.832;8.732;2022-08-19T06:05:10;36.05;;;28.33;;
15944;SDS011;30172;48.832;8.732;2022-08-19T06:07:36;32.63;;;27.90;;
15944;SDS011;30172;48.832;8.732;2022-08-19T06:10:03;31.05;;;27.60;;
15944;SDS011;30172;48.832;8.732;2022-08-19T06:12:32;30.90;;;26.13;;
15944;SDS011;30172;48.832;8.732;2022-08-19T06:15:08;33.35;;;27.17;;
15944;SDS011;30172;48.832;8.732;2022-08-19T06:17:36;30.48;;;26.52;;
15944;SDS011;30172;48.832;8.732;2022-08-19T06:20:03;29.63;;;26.33;;
15944;SDS011;30172;48.832;8.732;2022-08-19T06:22:29;32.40;;;27.13;;
15944;SDS011;30172;48.832;8.732;2022-08-19T06:24:55;29.88;;;26.73;;
15944;SDS011;30172;48.832;8.732;2022-08-19T06:27:20;30.98;;;27.65;;
15944;SDS011;30172;48.832;8.732;2022-08-19T06:29:46;28.55;;;25.55;;
15944;SDS011;30172;48.832;8.732;2022-08-19T06:32:11;31.27;;;27.27;;
15944;SDS011;30172;48.832;8.732;2022-08-19T06:34:39;27.65;;;24.80;;
15944;SDS011;30172;48.832;8.732;2022-08-19T06:37:06;30.02;;;25.67;;
15944;SDS011;30172;48.832;8.732;2022-08-19T06:39:32;29.35;;;26.17;;
15944;SDS011;30172;48.832;8.732;2022-08-19T06:42:00;28.15;;;25.38;;
15944;SDS011;30172;48.832;8.732;2022-08-19T06:44:28;31.10;;;25.92;;
15944;SDS011;30172;48.832;8.732;2022-08-19T06:47:02;30.25;;;26.42;;
15944;SDS011;30172;48.832;8.732;2022-08-19T06:49:28;28.85;;;25.70;;
15944;SDS011;30172;48.832;8.732;2022-08-19T06:51:56;31.35;;;25.58;;
15944;SDS011;30172;48.832;8.732;2022-08-19T06:54:22;29.77;;;25.77;;
15944;SDS011;30172;48.832;8.732;2022-08-19T06:56:48;28.67;;;25.67;;
15944;SDS011;30172;48.832;8.732;2022-08-19T06:59:18;27.92;;;24.98;;
15944;SDS011;30172;48.832;8.732;2022-08-19T07:01:46;27.67;;;24.83;;
15944;SDS011;30172;48.832;8.732;2022-08-19T07:04:14;26.35;;;23.50;;
15944;SDS011;30172;48.832;8.732;2022-08-19T07:06:42;28.90;;;25.60;;
15944;SDS011;30172;48.832;8.732;2022-08-19T07:09:10;27.92;;;25.00;;
15944;SDS011;30172;48.832;8.732;2022-08-19T07:11:43;28.27;;;25.45;;
15944;SDS011;30172;48.832;8.732;2022-08-19T07:14:10;29.27;;;26.08;;
15944;SDS011;30172;48.832;8.732;2022-08-19T07:16:35;28.52;;;25.63;;
15944;SDS011;30172;48.832;8.732;2022-08-19T07:19:00;27.67;;;24.75;;
15944;SDS011;30172;48.832;8.732;2022-08-19T07:21:27;28.15;;;24.65;;
15944;SDS011;30172;48.832;8.732;2022-08-19T07:23:53;29.05;;;26.10;;
15944;SDS011;30172;48.832;8.732;2022-08-19T07:26:21;27.77;;;24.88;;
15944;SDS011;30172;48.832;8.732;2022-08-19T07:28:49;26.85;;;24.00;;
15944;SDS011;30172;48.832;8.732;2022-08-19T07:31:16;27.73;;;24.73;;
15944;SDS011;30172;48.832;8.732;2022-08-19T07:33:43;27.50;;;24.83;;
15944;SDS011;30172;48.832;8.732;2022-08-19T07:36:10;27.77;;;24.02;;
15944;SDS011;30172;48.832;8.732;2022-08-19T07:38:37;26.90;;;23.42;;
15944;SDS011;30172;48.832;8.732;2022-08-19T07:41:04;28.33;;;24.08;;
15944;SDS011;30172;48.832;8.732;2022-08-19T07:43:30;26.52;;;23.70;;
15944;SDS011;30172;48.832;8.732;2022-08-19T07:45:55;25.77;;;23.15;;
15944;SDS011;30172;48.832;8.732;2022-08-19T07:48:23;26.23;;;22.15;;
15944;SDS011;30172;48.832;8.732;2022-08-19T07:50:51;27.02;;;24.23;;
15944;SDS011;30172;48.832;8.732;2022-08-19T07:53:19;24.65;;;22.15;;
15944;SDS011;30172;48.832;8.732;2022-08-19T07:55:45;27.27;;;21.70;;
15944;SDS011;30172;48.832;8.732;2022-08-19T07:58:12;25.13;;;22.55;;
15944;SDS011;30172;48.832;8.732;2022-08-19T08:00:39;26.90;;;23.52;;
15944;SDS011;30172;48.832;8.732;2022-08-19T08:03:05;24.60;;;22.05;;
15944;SDS011;30172;48.832;8.732;2022-08-19T08:05:30;24.00;;;21.50;;
15944;SDS011;30172;48.832;8.732;2022-08-19T08:08:14;24.48;;;21.92;;
15944;SDS011;30172;48.832;8.732;2022-08-19T08:10:58;23.85;;;21.48;;
15944;SDS011;30172;48.832;8.732;2022-08-19T08:13:25;22.27;;;20.08;;
15944;SDS011;30172;48.832;8.732;2022-08-19T08:15:51;22.80;;;20.23;;
15944;SDS011;30172;48.832;8.732;2022-08-19T08:18:16;21.38;;;19.13;;
15944;SDS011;30172;48.832;8.732;2022-08-19T08:20:42;24.17;;;20.58;;
15944;SDS011;30172;48.832;8.732;2022-08-19T08:23:07;20.33;;;18.27;;
15944;SDS011;30172;48.832;8.732;2022-08-19T08:25:50;22.77;;;20.40;;
15944;SDS011;30172;48.832;8.732;2022-08-19T08:28:18;22.58;;;20.35;;
15944;SDS011;30172;48.832;8.732;2022-08-19T08:30:45;21.88;;;19.63;;
15944;SDS011;30172;48.832;8.732;2022-08-19T08:33:12;21.58;;;19.20;;
15944;SDS011;30172;48.832;8.732;2022-08-19T08:35:39;21.05;;;18.92;;
15944;SDS011;30172;48.832;8.732;2022-08-19T08:38:07;21.90;;;19.70;;
15944;SDS011;30172;48.832;8.732;2022-08-19T08:43:08;20.48;;;18.58;;
15944;SDS011;30172;48.832;8.732;2022-08-19T08:45:35;20.38;;;18.33;;
15944;SDS011;30172;48.832;8.732;2022-08-19T08:48:10;21.02;;;18.90;;
15944;SDS011;30172;48.832;8.732;2022-08-19T08:50:41;21.77;;;19.65;;
15944;SDS011;30172;48.832;8.732;2022-08-19T08:53:08;21.90;;;19.60;;
15944;SDS011;30172;48.832;8.732;2022-08-19T08:55:36;21.10;;;18.90;;
15944;SDS011;30172;48.832;8.732;2022-08-19T08:58:06;20.98;;;18.80;;
15944;SDS011;30172;48.832;8.732;2022-08-19T09:00:37;21.60;;;18.77;;
15944;SDS011;30172;48.832;8.732;2022-08-19T09:03:15;23.23;;;20.92;;
15944;SDS011;30172;48.832;8.732;2022-08-19T09:05:46;20.17;;;18.10;;
15944;SDS011;30172;48.832;8.732;2022-08-19T09:08:27;21.08;;;17.15;;
15944;SDS011;30172;48.832;8.732;2022-08-19T09:10:58;20.00;;;17.90;;
15944;SDS011;30172;48.832;8.732;2022-08-19T09:16:06;21.75;;;17.77;;
15944;SDS011;30172;48.832;8.732;2022-08-19T09:18:47;19.95;;;17.98;;
15944;SDS011;30172;48.832;8.732;2022-08-19T09:21:16;19.55;;;17.65;;
15944;SDS011;30172;48.832;8.732;2022-08-19T09:23:42;20.77;;;18.08;;
15944;SDS011;30172;48.832;8.732;2022-08-19T09:26:08;22.45;;;18.88;;
15944;SDS011;30172;48.832;8.732;2022-08-19T09:28:38;20.52;;;18.38;;
15944;SDS011;30172;48.832;8.732;2022-08-19T09:31:03;20.48;;;18.38;;
15944;SDS011;30172;48.832;8.732;2022-08-19T09:33:29;19.10;;;17.27;;
15944;SDS011;30172;48.832;8.732;2022-08-19T09:36:07;20.85;;;17.08;;
15944;SDS011;30172;48.832;8.732;2022-08-19T09:38:34;19.35;;;17.33;;
15944;SDS011;30172;48.832;8.732;2022-08-19T09:41:02;19.17;;;17.17;;
15944;SDS011;30172;48.832;8.732;2022-08-19T09:43:29;20.48;;;18.33;;
15944;SDS011;30172;48.832;8.732;2022-08-19T09:45:54;19.02;;;17.23;;
15944;SDS011;30172;48.832;8.732;2022-08-19T09:48:19;19.00;;;17.13;;
15944;SDS011;30172;48.832;8.732;2022-08-19T09:50:46;18.33;;;15.43;;
15944;SDS011;30172;48.832;8.732;2022-08-19T09:53:11;18.00;;;16.05;;
15944;SDS011;30172;48.832;8.732;2022-08-19T09:55:41;16.98;;;15.40;;
15944;SDS011;30172;48.832;8.732;2022-08-19T09:58:07;17.63;;;14.40;;
15944;SDS011;30172;48.832;8.732;2022-08-19T10:00:37;18.27;;;16.23;;
15944;SDS011;30172;48.832;8.732;2022-08-19T10:03:02;16.52;;;14.90;;
15944;SDS011;30172;48.832;8.732;2022-08-19T10:05:28;15.75;;;13.93;;
15944;SDS011;30172;48.832;8.732;2022-08-19T10:08:12;15.57;;;12.93;;
15944;SDS011;30172;48.832;8.732;2022-08-19T10:10:37;16.45;;;13.60;;
15944;SDS011;30172;48.832;8.732;2022-08-19T10:13:02;12.70;;;11.40;;
15944;SDS011;30172;48.832;8.732;2022-08-19T10:15:28;13.10;;;10.23;;
15944;SDS011;30172;48.832;8.732;2022-08-19T10:17:54;16.27;;;10.73;;
15944;SDS011;30172;48.832;8.732;2022-08-19T10:20:19;12.57;;;11.38;;
15944;SDS011;30172;48.832;8.732;2022-08-19T10:22:45;11.82;;;10.55;;
15944;SDS011;30172;48.832;8.732;2022-08-19T10:25:10;11.70;;;9.93;;
15944;SDS011;30172;48.832;8.732;2022-08-19T10:27:37;13.88;;;11.65;;
15944;SDS011;30172;48.832;8.732;2022-08-19T10:30:03;19.02;;;9.32;;
15944;SDS011;30172;48.832;8.732;2022-08-19T10:32:28;11.98;;;10.77;;
15944;SDS011;30172;48.832;8.732;2022-08-19T10:34:55;12.50;;;11.20;;
15944;SDS011;30172;48.832;8.732;2022-08-19T10:37:21;12.30;;;11.07;;
15944;SDS011;30172;48.832;8.732;2022-08-19T10:39:46;12.60;;;11.30;;
15944;SDS011;30172;48.832;8.732;2022-08-19T10:42:15;12.10;;;10.85;;
15944;SDS011;30172;48.832;8.732;2022-08-19T10:44:41;12.30;;;11.20;;
15944;SDS011;30172;48.832;8.732;2022-08-19T10:47:07;11.32;;;10.25;;
15944;SDS011;30172;48.832;8.732;2022-08-19T10:49:33;11.13;;;9.95;;
15944;SDS011;30172;48.832;8.732;2022-08-19T10:52:18;12.18;;;10.88;;
15944;SDS011;30172;48.832;8.732;2022-08-19T10:54:59;12.98;;;9.88;;
15944;SDS011;30172;48.832;8.732;2022-08-19T10:57:44;12.02;;;10.93;;
15944;SDS011;30172;48.832;8.732;2022-08-19T11:00:13;12.13;;;11.02;;
15944;SDS011;30172;48.832;8.732;2022-08-19T11:02:38;15.48;;;13.85;;
15944;SDS011;30172;48.832;8.732;2022-08-19T11:05:04;12.65;;;11.23;;
15944;SDS011;30172;48.832;8.732;2022-08-19T11:07:32;13.40;;;11.75;;
15944;SDS011;30172;48.832;8.732;2022-08-19T11:09:57;10.90;;;10.00;;
15944;SDS011;30172;48.832;8.732;2022-08-19T11:12:22;10.65;;;9.57;;
15944;SDS011;30172;48.832;8.732;2022-08-19T11:14:49;11.07;;;9.93;;
15944;SDS011;30172;48.832;8.732;2022-08-19T11:17:15;12.05;;;10.95;;
15944;SDS011;30172;48.832;8.732;2022-08-19T11:19:40;11.98;;;10.70;;
15944;SDS011;30172;48.832;8.732;2022-08-19T11:22:07;9.40;;;8.50;;
15944;SDS011;30172;48.832;8.732;2022-08-19T11:24:34;10.73;;;9.27;;
15944;SDS011;30172;48.832;8.732;2022-08-19T11:27:01;10.15;;;9.15;;
15944;SDS011;30172;48.832;8.732;2022-08-19T11:29:29;10.10;;;9.05;;
15944;SDS011;30172;48.832;8.732;2022-08-19T11:31:55;9.38;;;8.57;;
15944;SDS011;30172;48.832;8.732;2022-08-19T11:34:22;9.02;;;8.25;;
15944;SDS011;30172;48.832;8.732;2022-08-19T11:36:50;8.35;;;7.65;;
15944;SDS011;30172;48.832;8.732;2022-08-19T11:39:17;10.52;;;8.55;;
15944;SDS011;30172;48.832;8.732;2022-08-19T11:41:43;8.27;;;7.65;;
15944;SDS011;30172;48.832;8.732;2022-08-19T11:44:09;9.10;;;8.20;;
15944;SDS011;30172;48.832;8.732;2022-08-19T11:46:35;9.20;;;8.38;;
15944;SDS011;30172;48.832;8.732;2022-08-19T11:49:02;9.13;;;8.25;;
15944;SDS011;30172;48.832;8.732;2022-08-19T11:51:29;10.15;;;8.20;;
15944;SDS011;30172;48.832;8.732;2022-08-19T11:53:54;8.32;;;7.32;;
15944;SDS011;30172;48.832;8.732;2022-08-19T11:56:20;10.75;;;7.65;;
15944;SDS011;30172;48.832;8.732;2022-08-19T11:58:46;7.88;;;7.15;;
15944;SDS011;30172;48.832;8.732;2022-08-19T12:01:13;8.63;;;7.75;;
15944;SDS011;30172;48.832;8.732;2022-08-19T12:03:40;8.88;;;7.97;;
15944;SDS011;30172;48.832;8.732;2022-08-19T12:06:07;9.25;;;8.32;;
15944;SDS011;30172;48.832;8.732;2022-08-19T12:08:34;8.10;;;7.40;;
15944;SDS011;30172;48.832;8.732;2022-08-19T12:11:00;8.35;;;7.55;;
15944;SDS011;30172;48.832;8.732;2022-08-19T12:13:26;8.07;;;7.28;;
15944;SDS011;30172;48.832;8.732;2022-08-19T12:15:52;8.93;;;7.53;;
15944;SDS011;30172;48.832;8.732;2022-08-19T12:18:18;8.35;;;7.57;;
15944;SDS011;30172;48.832;8.732;2022-08-19T12:20:43;8.50;;;7.80;;
15944;SDS011;30172;48.832;8.732;2022-08-19T12:23:10;8.98;;;7.32;;
15944;SDS011;30172;48.832;8.732;2022-08-19T12:25:36;7.80;;;6.53;;
15944;SDS011;30172;48.832;8.732;2022-08-19T12:28:02;7.50;;;6.78;;
15944;SDS011;30172;48.832;8.732;2022-08-19T12:30:28;7.85;;;6.43;;
15944;SDS011;30172;48.832;8.732;2022-08-19T12:32:54;8.07;;;6.50;;
15944;SDS011;30172;48.832;8.732;2022-08-19T12:35:19;8.35;;;6.93;;
15944;SDS011;30172;48.832;8.732;2022-08-19T12:37:45;7.47;;;6.85;;
15944;SDS011;30172;48.832;8.732;2022-08-19T12:40:11;8.15;;;6.60;;
15944;SDS011;30172;48.832;8.732;2022-08-19T12:42:38;8.00;;;7.43;;
15944;SDS011;30172;48.832;8.732;2022-08-19T12:45:07;8.25;;;7.55;;
15944;SDS011;30172;48.832;8.732;2022-08-19T12:47:34;11.00;;;9.57;;
15944;SDS011;30172;48.832;8.732;2022-08-19T12:50:00;10.10;;;9.27;;
15944;SDS011;30172;48.832;8.732;2022-08-19T12:52:25;10.50;;;7.82;;
15944;SDS011;30172;48.832;8.732;2022-08-19T12:54:52;10.77;;;9.43;;
15944;SDS011;30172;48.832;8.732;2022-08-19T12:57:19;9.13;;;8.23;;
15944;SDS011;30172;48.832;8.732;2022-08-19T12:59:44;10.13;;;9.25;;
15944;SDS011;30172;48.832;8.732;2022-08-19T13:02:09;10.40;;;9.57;;
15944;SDS011;30172;48.832;8.732;2022-08-19T13:04:35;12.23;;;10.23;;
15944;SDS011;30172;48.832;8.732;2022-08-19T13:07:03;10.00;;;9.10;;
15944;SDS011;30172;48.832;8.732;2022-08-19T13:09:28;10.30;;;9.23;;
15944;SDS011;30172;48.832;8.732;2022-08-19T13:11:54;10.68;;;9.68;;
15944;SDS011;30172;48.832;8.732;2022-08-19T13:14:19;10.43;;;9.20;;
15944;SDS011;30172;48.832;8.732;2022-08-19T13:16:44;9.25;;;8.38;;
15944;SDS011;30172;48.832;8.732;2022-08-19T13:19:10;9.98;;;9.07;;
15944;SDS011;30172;48.832;8.732;2022-08-19T13:21:36;9.43;;;8.63;;
15944;SDS011;30172;48.832;8.732;2022-08-19T13:24:02;9.23;;;8.02;;
15944;SDS011;30172;48.832;8.732;2022-08-19T13:26:27;10.10;;;8.48;;
15944;SDS011;30172;48.832;8.732;2022-08-19T13:28:53;10.15;;;9.15;;
15944;SDS011;30172;48.832;8.732;2022-08-19T13:31:39;9.13;;;8.27;;
15944;SDS011;30172;48.832;8.732;2022-08-19T13:34:33;8.90;;;8.10;;
15944;SDS011;30172;48.832;8.732;2022-08-19T13:37:01;8.60;;;7.80;;
15944;SDS011;30172;48.832;8.732;2022-08-19T13:39:28;9.85;;;9.05;;
15944;SDS011;30172;48.832;8.732;2022-08-19T13:41:53;8.93;;;8.23;;
15944;SDS011;30172;48.832;8.732;2022-08-19T13:44:19;8.88;;;8.10;;
15944;SDS011;30172;48.832;8.732;2022-08-19T13:46:45;9.73;;;8.48;;
15944;SDS011;30172;48.832;8.732;2022-08-19T13:49:11;8.82;;;8.05;;
15944;SDS011;30172;48.832;8.732;2022-08-19T13:51:39;7.95;;;7.35;;
15944;SDS011;30172;48.832;8.732;2022-08-19T13:54:05;9.27;;;8.45;;
15944;SDS011;30172;48.832;8.732;2022-08-19T13:56:31;9.85;;;9.05;;
15944;SDS011;30172;48.832;8.732;2022-08-19T13:58:56;9.73;;;8.10;;
15944;SDS011;30172;48.832;8.732;2022-08-19T14:01:23;9.75;;;8.85;;
15944;SDS011;30172;48.832;8.732;2022-08-19T14:03:49;9.20;;;8.48;;
15944;SDS011;30172;48.832;8.732;2022-08-19T14:06:14;9.43;;;8.60;;
15944;SDS011;30172;48.832;8.732;2022-08-19T14:08:39;9.20;;;8.32;;
15944;SDS011;30172;48.832;8.732;2022-08-19T14:11:06;9.15;;;8.25;;
15944;SDS011;30172;48.832;8.732;2022-08-19T14:13:32;8.77;;;7.97;;
15944;SDS011;30172;48.832;8.732;2022-08-19T14:15:59;9.10;;;8.40;;
15944;SDS011;30172;48.832;8.732;2022-08-19T14:18:24;8.77;;;8.05;;
15944;SDS011;30172;48.832;8.732;2022-08-19T14:20:50;9.98;;;9.15;;
15944;SDS011;30172;48.832;8.732;2022-08-19T14:23:15;9.93;;;8.93;;
15944;SDS011;30172;48.832;8.732;2022-08-19T14:25:41;8.68;;;7.97;;
15944;SDS011;30172;48.832;8.732;2022-08-19T14:28:07;10.00;;;8.90;;
15944;SDS011;30172;48.832;8.732;2022-08-19T14:30:33;9.88;;;8.55;;
15944;SDS011;30172;48.832;8.732;2022-08-19T14:33:00;8.25;;;7.65;;
15944;SDS011;30172;48.832;8.732;2022-08-19T14:35:27;10.15;;;9.25;;